createdAt,value
2023-02-19T00:00:17.004Z,5.00
2023-02-19T00:03:05.736Z,4.40
2023-02-19T00:05:35.966Z,4.30
2023-02-19T00:08:05.069Z,4.20
2023-02-19T00:10:33.857Z,5.10
2023-02-19T00:13:04.811Z,5.00
2023-02-19T00:15:34.071Z,3.70
2023-02-19T00:18:02.973Z,3.70
2023-02-19T00:20:31.827Z,3.60
2023-02-19T00:23:00.636Z,4.00
2023-02-19T00:25:29.471Z,3.40
2023-02-19T00:27:58.188Z,4.00
2023-02-19T00:30:27.078Z,3.60
2023-02-19T00:32:55.652Z,3.70
2023-02-19T00:35:24.596Z,3.80
2023-02-19T00:37:59.382Z,4.00
2023-02-19T00:40:28.037Z,3.30
2023-02-19T00:42:56.907Z,3.40
2023-02-19T00:45:25.757Z,3.70
2023-02-19T00:47:54.525Z,4.10
2023-02-19T00:50:23.473Z,3.60
2023-02-19T00:52:52.170Z,3.60
2023-02-19T00:55:20.971Z,3.80
2023-02-19T00:57:49.663Z,4.00
2023-02-19T01:00:18.557Z,4.60
2023-02-19T01:02:47.515Z,4.10
2023-02-19T01:05:16.313Z,4.00
2023-02-19T01:07:45.145Z,3.80
2023-02-19T01:10:14.033Z,3.80
2023-02-19T01:12:43.029Z,4.60
2023-02-19T01:15:11.905Z,5.40
2023-02-19T01:17:40.683Z,5.70
2023-02-19T01:20:10.254Z,5.70
2023-02-19T01:22:38.927Z,5.40
2023-02-19T01:25:08.381Z,5.80
2023-02-19T01:27:36.998Z,4.90
2023-02-19T01:30:06.271Z,4.80
2023-02-19T01:32:34.963Z,5.50
2023-02-19T01:35:03.747Z,4.60
2023-02-19T01:37:32.402Z,5.60
2023-02-19T01:40:01.089Z,4.70
2023-02-19T01:42:29.847Z,5.70
2023-02-19T01:45:30.392Z,5.00
2023-02-19T01:48:34.291Z,4.50
2023-02-19T01:51:11.376Z,4.60
2023-02-19T01:53:46.539Z,4.30
2023-02-19T01:56:19.129Z,4.30
2023-02-19T01:58:48.390Z,3.80
2023-02-19T02:01:17.151Z,3.60
2023-02-19T02:03:49.168Z,4.90
2023-02-19T02:06:34.569Z,4.90
2023-02-19T02:09:21.804Z,4.10
2023-02-19T02:11:53.383Z,3.90
2023-02-19T02:14:29.536Z,4.20
2023-02-19T02:17:20.354Z,3.30
2023-02-19T02:20:15.439Z,4.10
2023-02-19T02:22:49.424Z,4.30
2023-02-19T02:28:21.953Z,4.10
2023-02-19T02:31:02.980Z,3.40
2023-02-19T02:33:47.533Z,4.90
2023-02-19T02:36:25.004Z,5.70
2023-02-19T02:38:55.649Z,5.50
2023-02-19T02:41:27.007Z,4.80
2023-02-19T02:43:56.156Z,4.30
2023-02-19T02:46:35.797Z,4.30
2023-02-19T02:49:10.614Z,4.40
2023-02-19T02:51:47.097Z,3.50
2023-02-19T02:54:47.035Z,3.90
2023-02-19T02:57:17.397Z,4.00
2023-02-19T02:59:49.610Z,3.60
2023-02-19T03:02:26.417Z,4.20
2023-02-19T03:05:28.252Z,4.10
2023-02-19T03:08:38.350Z,4.10
2023-02-19T03:11:29.102Z,3.80
2023-02-19T03:14:29.518Z,3.70
2023-02-19T03:17:35.119Z,3.60
2023-02-19T03:20:09.843Z,3.00
2023-02-19T03:22:40.927Z,2.80
2023-02-19T03:25:37.532Z,2.70
2023-02-19T03:28:11.169Z,3.20
2023-02-19T03:30:47.964Z,2.70
2023-02-19T03:33:22.497Z,3.20
2023-02-19T03:36:05.568Z,1.90
2023-02-19T03:38:44.812Z,2.50
2023-02-19T03:41:26.292Z,2.20
2023-02-19T03:44:30.809Z,2.20
2023-02-19T03:47:13.920Z,2.50
2023-02-19T03:50:28.530Z,2.10
2023-02-19T03:53:18.805Z,1.90
2023-02-19T03:56:38.422Z,2.40
2023-02-19T03:59:43.738Z,1.80
2023-02-19T04:02:20.440Z,1.90
2023-02-19T04:04:56.677Z,2.30
2023-02-19T04:07:27.638Z,1.80
2023-02-19T04:09:56.848Z,2.10
2023-02-19T04:12:25.827Z,2.30
2023-02-19T04:15:06.862Z,1.80
2023-02-19T04:17:59.814Z,2.40
2023-02-19T04:20:32.648Z,2.40
2023-02-19T04:23:01.299Z,2.10
2023-02-19T04:25:31.398Z,2.50
2023-02-19T04:28:00.488Z,2.30
2023-02-19T04:30:29.436Z,2.50
2023-02-19T04:32:58.177Z,2.70
2023-02-19T04:35:26.854Z,2.40
2023-02-19T04:37:55.373Z,2.20
2023-02-19T04:40:23.992Z,2.30
2023-02-19T04:42:53.439Z,2.50
2023-02-19T04:45:22.009Z,3.00
2023-02-19T04:47:50.590Z,2.40
2023-02-19T04:50:19.288Z,3.50
2023-02-19T04:52:47.888Z,2.70
2023-02-19T04:55:16.757Z,2.70
2023-02-19T04:57:45.424Z,2.70
2023-02-19T05:00:14.679Z,2.70
2023-02-19T05:02:43.219Z,3.00
2023-02-19T05:05:11.858Z,2.80
2023-02-19T05:07:40.379Z,3.10
2023-02-19T05:10:09.175Z,2.90
2023-02-19T05:12:37.872Z,3.00
2023-02-19T05:15:06.732Z,2.90
2023-02-19T05:17:35.751Z,2.80
2023-02-19T05:20:04.743Z,2.70
2023-02-19T05:22:33.324Z,2.70
2023-02-19T05:25:02.098Z,2.40
2023-02-19T05:27:31.770Z,3.60
2023-02-19T05:30:00.571Z,3.40
2023-02-19T05:32:29.276Z,2.90
2023-02-19T05:34:57.870Z,3.40
2023-02-19T05:37:26.417Z,3.10
2023-02-19T05:39:54.960Z,3.40
2023-02-19T05:42:23.603Z,3.60
2023-02-19T05:44:52.438Z,2.90
2023-02-19T05:47:21.023Z,3.00
2023-02-19T05:49:49.692Z,3.50
2023-02-19T05:52:18.349Z,3.40
2023-02-19T05:54:46.983Z,2.50
2023-02-19T05:57:15.592Z,2.80
2023-02-19T05:59:44.236Z,3.60
2023-02-19T06:02:12.932Z,3.30
2023-02-19T06:04:41.686Z,2.50
2023-02-19T06:07:10.316Z,2.60
2023-02-19T06:09:38.880Z,3.40
2023-02-19T06:12:08.293Z,2.40
2023-02-19T06:14:37.020Z,3.20
2023-02-19T06:17:05.565Z,3.10
2023-02-19T06:19:34.168Z,3.00
2023-02-19T06:22:02.933Z,4.10
2023-02-19T06:24:31.779Z,3.70
2023-02-19T06:27:00.508Z,3.00
2023-02-19T06:29:29.241Z,3.50
2023-02-19T06:31:58.175Z,3.70
2023-02-19T06:34:27.178Z,3.50
2023-02-19T06:36:57.816Z,2.60
2023-02-19T06:39:27.720Z,2.80
2023-02-19T06:41:57.849Z,2.90
2023-02-19T06:44:26.483Z,2.70
2023-02-19T06:46:56.171Z,3.20
2023-02-19T06:49:24.744Z,2.40
2023-02-19T06:51:53.568Z,3.20
2023-02-19T06:54:22.194Z,2.10
2023-02-19T06:56:50.749Z,1.90
2023-02-19T06:59:19.388Z,2.00
2023-02-19T07:01:48.089Z,2.60
2023-02-19T07:04:16.961Z,2.50
2023-02-19T07:06:45.754Z,2.90
2023-02-19T07:09:14.459Z,2.70
2023-02-19T07:11:43.090Z,2.80
2023-02-19T07:14:16.843Z,2.30
2023-02-19T07:16:47.549Z,2.40
2023-02-19T07:19:16.221Z,2.30
2023-02-19T07:21:44.789Z,1.90
2023-02-19T07:24:13.514Z,2.40
2023-02-19T07:26:42.672Z,1.90
2023-02-19T07:29:11.241Z,1.10
2023-02-19T07:31:40.059Z,1.80
2023-02-19T07:34:08.868Z,2.10
2023-02-19T07:36:37.873Z,1.80
2023-02-19T07:39:09.117Z,1.40
2023-02-19T07:41:38.899Z,1.20
2023-02-19T07:44:07.890Z,1.60
2023-02-19T07:46:36.574Z,1.60
2023-02-19T07:49:07.316Z,1.40
2023-02-19T07:51:36.033Z,2.40
2023-02-19T07:54:04.688Z,1.70
2023-02-19T07:56:33.351Z,2.30
2023-02-19T07:59:01.989Z,1.90
2023-02-19T08:02:29.663Z,1.80
2023-02-19T08:04:58.420Z,1.50
2023-02-19T08:07:35.491Z,2.10
2023-02-19T08:10:24.301Z,2.90
2023-02-19T08:13:19.105Z,1.90
2023-02-19T08:18:17.552Z,2.20
2023-02-19T08:20:46.439Z,1.80
2023-02-19T08:23:15.393Z,2.00
2023-02-19T08:25:44.042Z,2.20
2023-02-19T08:28:13.245Z,2.20
2023-02-19T08:30:45.481Z,2.10
2023-02-19T08:33:17.758Z,1.60
2023-02-19T08:35:47.123Z,1.50
2023-02-19T08:38:18.830Z,1.60
2023-02-19T08:40:47.393Z,1.50
2023-02-19T08:43:17.815Z,1.70
2023-02-19T08:45:52.589Z,1.50
2023-02-19T08:48:21.432Z,1.70
2023-02-19T08:51:04.039Z,1.70
2023-02-19T08:53:33.201Z,1.60
2023-02-19T08:56:13.736Z,1.40
2023-02-19T08:58:43.045Z,1.70
2023-02-19T09:01:18.787Z,1.80
2023-02-19T09:03:47.689Z,1.70
2023-02-19T09:06:20.158Z,1.60
2023-02-19T09:08:49.054Z,2.00
2023-02-19T09:11:17.817Z,2.00
2023-02-19T09:13:46.603Z,1.50
2023-02-19T09:16:15.241Z,1.60
2023-02-19T09:18:46.043Z,1.10
2023-02-19T09:21:14.709Z,1.80
2023-02-19T09:23:43.359Z,2.30
2023-02-19T09:26:14.093Z,1.90
2023-02-19T09:28:43.309Z,2.20
2023-02-19T09:31:16.464Z,1.70
2023-02-19T09:33:47.677Z,1.90
2023-02-19T09:36:17.288Z,1.10
2023-02-19T09:38:46.091Z,1.80
2023-02-19T09:41:26.531Z,2.00
2023-02-19T09:43:55.935Z,2.20
2023-02-19T09:46:46.451Z,1.90
2023-02-19T09:49:25.717Z,2.70
2023-02-19T09:52:04.491Z,3.00
2023-02-19T09:54:34.345Z,1.70
2023-02-19T09:57:04.706Z,1.90
2023-02-19T10:00:04.777Z,1.60
2023-02-19T10:02:33.658Z,2.40
2023-02-19T10:05:04.040Z,2.10
2023-02-19T10:07:40.472Z,2.40
2023-02-19T10:10:14.540Z,1.60
2023-02-19T10:15:38.387Z,2.30
2023-02-19T10:18:09.510Z,2.30
2023-02-19T10:20:40.568Z,2.50
2023-02-19T10:23:14.363Z,1.60
2023-02-19T10:25:58.069Z,2.50
2023-02-19T10:28:34.701Z,2.50
2023-02-19T10:31:12.079Z,2.60
2023-02-19T10:33:51.940Z,3.00
2023-02-19T10:36:39.160Z,2.80
2023-02-19T10:39:22.930Z,2.80
2023-02-19T10:41:54.718Z,2.80
2023-02-19T10:44:28.222Z,2.60
2023-02-19T10:47:00.142Z,2.10
2023-02-19T10:49:39.927Z,3.20
2023-02-19T10:52:27.051Z,2.80
2023-02-19T10:55:17.815Z,2.80
2023-02-19T10:57:47.243Z,2.90
2023-02-19T11:00:15.661Z,2.90
2023-02-19T11:02:45.301Z,2.50
2023-02-19T11:05:16.825Z,2.60
2023-02-19T11:07:56.229Z,2.80
2023-02-19T11:10:33.757Z,3.10
2023-02-19T11:13:06.563Z,2.50
2023-02-19T11:15:37.499Z,3.10
2023-02-19T11:18:33.161Z,3.20
2023-02-19T11:21:05.358Z,3.30
2023-02-19T11:23:47.343Z,3.30
2023-02-19T11:26:31.255Z,2.60
2023-02-19T11:29:11.382Z,2.20
2023-02-19T11:31:40.026Z,2.90
2023-02-19T11:34:14.646Z,3.00
2023-02-19T11:36:43.061Z,3.10
2023-02-19T11:39:17.502Z,3.00
2023-02-19T11:42:10.247Z,2.90
2023-02-19T11:44:56.851Z,3.70
2023-02-19T11:48:05.689Z,3.80
2023-02-19T11:51:10.849Z,3.40
2023-02-19T11:53:49.839Z,3.50
2023-02-19T11:56:34.142Z,3.90
2023-02-19T11:59:20.246Z,3.40
2023-02-19T12:01:54.468Z,4.10
2023-02-19T12:04:56.970Z,3.70
2023-02-19T12:08:09.673Z,3.30
2023-02-19T12:11:25.265Z,3.50
2023-02-19T12:16:58.418Z,3.50
2023-02-19T12:20:11.544Z,3.60
2023-02-19T12:22:58.984Z,3.80
2023-02-19T12:25:51.456Z,3.80
2023-02-19T12:28:40.328Z,4.30
2023-02-19T12:31:49.404Z,3.70
2023-02-19T12:34:24.301Z,3.40
2023-02-19T12:37:24.918Z,4.20
2023-02-19T12:40:25.046Z,4.70
2023-02-19T12:43:24.628Z,4.70
2023-02-19T12:46:04.545Z,4.20
2023-02-19T12:48:53.718Z,4.90
2023-02-19T12:51:57.682Z,4.90
2023-02-19T12:54:44.597Z,4.40
2023-02-19T12:57:23.148Z,4.60
2023-02-19T13:00:10.552Z,5.10
2023-02-19T13:02:54.167Z,5.00
2023-02-19T13:05:48.347Z,5.10
2023-02-19T13:08:48.830Z,6.00
2023-02-19T13:11:31.475Z,5.50
2023-02-19T13:14:44.259Z,5.80
2023-02-19T13:17:51.532Z,6.50
2023-02-19T13:20:39.357Z,5.80
2023-02-19T13:23:55.398Z,6.30
2023-02-19T13:26:48.802Z,6.40
2023-02-19T13:29:53.374Z,7.10
2023-02-19T13:32:32.197Z,6.10
2023-02-19T13:35:39.279Z,6.00
2023-02-19T13:38:14.903Z,5.70
2023-02-19T13:40:55.163Z,5.70
2023-02-19T13:43:38.922Z,5.00
2023-02-19T13:46:11.012Z,5.90
2023-02-19T13:48:41.996Z,5.80
2023-02-19T13:51:13.676Z,5.80
2023-02-19T13:53:42.664Z,6.10
2023-02-19T13:56:35.651Z,5.40
2023-02-19T13:59:21.925Z,5.70
2023-02-19T14:01:51.605Z,5.30
2023-02-19T14:04:50.377Z,5.40
2023-02-19T14:07:18.831Z,4.90
2023-02-19T14:09:48.168Z,5.30
2023-02-19T14:12:16.668Z,5.30
2023-02-19T14:14:53.395Z,5.80
2023-02-19T14:17:42.202Z,5.90
2023-02-19T14:20:11.732Z,6.10
2023-02-19T14:22:51.645Z,5.50
2023-02-19T14:25:30.618Z,4.60
2023-02-19T14:28:15.072Z,7.10
2023-02-19T14:33:36.225Z,5.50
2023-02-19T14:36:37.894Z,6.40
2023-02-19T14:39:12.810Z,6.10
2023-02-19T14:41:46.403Z,5.40
2023-02-19T14:44:25.095Z,6.40
2023-02-19T14:47:23.280Z,5.80
2023-02-19T14:49:59.265Z,6.60
2023-02-19T14:52:44.524Z,5.90
2023-02-19T14:55:32.987Z,5.70
2023-02-19T14:58:07.921Z,5.80
2023-02-19T15:00:42.140Z,9.20
2023-02-19T15:03:35.404Z,6.50
2023-02-19T15:06:16.578Z,6.10
2023-02-19T15:08:52.745Z,5.60
2023-02-19T15:11:26.352Z,6.00
2023-02-19T15:14:02.388Z,7.70
2023-02-19T15:16:35.904Z,7.90
2023-02-19T15:19:09.815Z,7.10
2023-02-19T15:21:46.652Z,6.00
2023-02-19T15:24:17.555Z,5.80
2023-02-19T15:26:54.406Z,7.20
2023-02-19T15:29:27.085Z,6.30
2023-02-19T15:32:01.223Z,7.20
2023-02-19T15:34:32.772Z,7.00
2023-02-19T15:37:08.407Z,7.10
2023-02-19T15:39:41.344Z,7.00
2023-02-19T15:42:16.935Z,8.20
2023-02-19T15:44:49.875Z,7.30
2023-02-19T15:47:34.885Z,6.70
2023-02-19T15:50:19.052Z,7.60
2023-02-19T15:53:23.834Z,8.30
2023-02-19T15:56:18.162Z,8.80
2023-02-19T15:58:53.234Z,9.20
2023-02-19T16:01:29.704Z,8.70
2023-02-19T16:03:59.042Z,7.80
2023-02-19T16:06:29.059Z,7.70
2023-02-19T16:09:06.046Z,8.40
2023-02-19T16:11:55.581Z,10.10
2023-02-19T16:14:25.640Z,9.40
2023-02-19T16:17:16.712Z,9.70
2023-02-19T16:20:02.411Z,10.00
2023-02-19T16:22:40.733Z,7.50
2023-02-19T16:25:30.762Z,9.90
2023-02-19T16:27:59.658Z,8.60
2023-02-19T16:30:34.165Z,10.10
2023-02-19T16:33:22.679Z,11.40
2023-02-19T16:35:52.581Z,11.10
2023-02-19T16:38:21.627Z,11.30
2023-02-19T16:40:54.305Z,12.40
2023-02-19T16:43:31.592Z,12.10
2023-02-19T16:46:01.807Z,12.50
2023-02-19T16:48:30.327Z,11.80
2023-02-19T16:50:59.692Z,12.20
2023-02-19T16:53:29.472Z,13.60
2023-02-19T16:55:58.011Z,13.00
2023-02-19T16:58:27.151Z,11.90
2023-02-19T17:00:56.286Z,12.80
2023-02-19T17:03:25.955Z,13.70
2023-02-19T17:05:54.595Z,11.50
2023-02-19T17:08:34.238Z,12.50
2023-02-19T17:11:06.767Z,12.00
2023-02-19T17:13:35.308Z,12.70
2023-02-19T17:16:04.402Z,11.40
2023-02-19T17:18:33.108Z,11.10
2023-02-19T17:21:23.073Z,11.00
2023-02-19T17:23:52.727Z,11.10
2023-02-19T17:26:28.238Z,10.10
2023-02-19T17:29:02.856Z,10.80
2023-02-19T17:31:31.900Z,10.10
2023-02-19T17:34:00.596Z,11.00
2023-02-19T17:36:32.605Z,11.50
2023-02-19T17:39:04.134Z,9.90
2023-02-19T17:41:33.192Z,9.10
2023-02-19T17:44:01.699Z,10.40
2023-02-19T17:46:30.189Z,9.20
2023-02-19T17:48:58.768Z,8.00
2023-02-19T17:51:27.247Z,8.00
2023-02-19T17:53:55.768Z,7.70
2023-02-19T17:56:26.722Z,7.60
2023-02-19T17:58:56.950Z,7.70
2023-02-19T18:01:25.478Z,7.00
2023-02-19T18:03:54.009Z,5.80
2023-02-19T18:06:22.593Z,13.60
2023-02-19T18:08:53.297Z,17.20
2023-02-19T18:11:23.066Z,15.40
2023-02-19T18:13:52.491Z,12.90
2023-02-19T18:16:22.402Z,11.50
2023-02-19T18:18:51.012Z,9.50
2023-02-19T18:21:19.646Z,10.10
2023-02-19T18:23:48.240Z,10.70
2023-02-19T18:26:21.613Z,10.70
2023-02-19T18:28:50.136Z,10.90
2023-02-19T18:31:18.913Z,9.20
2023-02-19T18:33:47.634Z,9.20
2023-02-19T18:36:16.454Z,8.70
2023-02-19T18:38:45.798Z,7.80
2023-02-19T18:41:14.842Z,7.30
2023-02-19T18:43:43.566Z,7.10
2023-02-19T18:46:12.377Z,6.80
2023-02-19T18:48:41.279Z,6.90
2023-02-19T18:51:11.658Z,6.60
2023-02-19T18:53:43.210Z,6.00
2023-02-19T18:56:11.829Z,4.70
2023-02-19T18:58:40.539Z,4.40
2023-02-19T19:01:09.549Z,3.80
2023-02-19T19:03:38.425Z,2.90
2023-02-19T19:06:07.464Z,3.10
2023-02-19T19:08:36.100Z,3.90
2023-02-19T19:11:04.818Z,5.40
2023-02-19T19:13:33.745Z,5.50
2023-02-19T19:16:02.533Z,6.00
2023-02-19T19:18:32.380Z,5.40
2023-02-19T19:21:03.710Z,5.10
2023-02-19T19:23:32.760Z,4.40
2023-02-19T19:26:07.276Z,4.10
2023-02-19T19:28:36.743Z,5.20
2023-02-19T19:31:05.944Z,5.10
2023-02-19T19:33:34.732Z,4.80
2023-02-19T19:36:06.946Z,4.40
2023-02-19T19:38:35.905Z,3.70
2023-02-19T19:41:06.415Z,3.30
2023-02-19T19:43:35.239Z,4.20
2023-02-19T19:46:04.526Z,3.10
2023-02-19T19:48:33.429Z,2.80
2023-02-19T19:51:02.303Z,3.70
2023-02-19T19:53:32.218Z,2.80
2023-02-19T19:56:01.907Z,2.40
2023-02-19T19:58:30.529Z,1.40
2023-02-19T20:01:01.854Z,1.10
2023-02-19T20:03:32.788Z,1.30
2023-02-19T20:06:02.670Z,1.00
2023-02-19T20:08:31.631Z,1.00
2023-02-19T20:11:00.234Z,1.10
2023-02-19T20:13:30.684Z,0.90
2023-02-19T20:15:59.432Z,0.90
2023-02-19T20:18:28.455Z,0.90
2023-02-19T20:20:57.031Z,0.80
2023-02-19T20:23:27.370Z,1.00
2023-02-19T20:25:57.764Z,1.50
2023-02-19T20:28:26.386Z,1.30
2023-02-19T20:30:55.300Z,0.70
2023-02-19T20:33:23.955Z,0.90
2023-02-19T20:35:52.480Z,1.10
2023-02-19T20:38:21.138Z,0.90
2023-02-19T20:40:49.728Z,1.10
2023-02-19T20:43:18.256Z,1.30
2023-02-19T20:45:47.935Z,1.20
2023-02-19T20:48:17.871Z,1.40
2023-02-19T20:50:46.397Z,1.40
2023-02-19T20:53:15.170Z,1.10
2023-02-19T20:55:43.732Z,1.00
2023-02-19T20:58:12.726Z,1.00
2023-02-19T21:00:41.374Z,1.30
2023-02-19T21:03:11.839Z,1.30
2023-02-19T21:05:41.601Z,1.40
2023-02-19T21:08:11.833Z,1.60
2023-02-19T21:10:40.722Z,1.40
2023-02-19T21:13:09.217Z,1.40
2023-02-19T21:15:37.760Z,1.60
2023-02-19T21:18:06.447Z,1.20
2023-02-19T21:20:35.148Z,1.40
2023-02-19T21:23:04.155Z,1.40
2023-02-19T21:25:33.333Z,1.40
2023-02-19T21:28:01.845Z,1.40
2023-02-19T21:30:30.390Z,1.70
2023-02-19T21:32:58.926Z,2.00
2023-02-19T21:35:28.102Z,1.50
2023-02-19T21:37:56.661Z,1.20
2023-02-19T21:40:25.959Z,1.50
2023-02-19T21:42:54.715Z,1.70
2023-02-19T21:45:23.536Z,1.30
2023-02-19T21:47:52.353Z,2.10
2023-02-19T21:50:22.724Z,1.60
2023-02-19T21:52:51.273Z,2.00
2023-02-19T21:55:20.670Z,2.10
2023-02-19T21:57:49.271Z,2.00
2023-02-19T22:00:18.380Z,2.20
2023-02-19T22:02:47.223Z,1.90
2023-02-19T22:05:16.520Z,2.20
2023-02-19T22:07:45.062Z,2.00
2023-02-19T22:10:15.447Z,2.10
2023-02-19T22:12:44.016Z,2.20
2023-02-19T22:15:13.034Z,2.20
2023-02-19T22:17:41.608Z,2.00
2023-02-19T22:20:10.419Z,2.30
2023-02-19T22:22:40.575Z,2.10
2023-02-19T22:25:09.238Z,2.60
2023-02-19T22:27:37.800Z,2.30
2023-02-19T22:30:07.363Z,2.50
2023-02-19T22:32:36.150Z,2.10
2023-02-19T22:35:04.842Z,2.70
2023-02-19T22:37:33.385Z,2.30
2023-02-19T22:40:02.079Z,2.90
2023-02-19T22:42:30.531Z,2.60
2023-02-19T22:44:59.007Z,2.60
2023-02-19T22:47:27.583Z,2.80
2023-02-19T22:49:56.032Z,2.80
2023-02-19T22:52:28.175Z,2.80
2023-02-19T22:54:56.884Z,3.10
2023-02-19T22:57:25.708Z,2.40
2023-02-19T22:59:54.230Z,3.20
2023-02-19T23:02:22.751Z,2.70
2023-02-19T23:04:51.370Z,3.30
2023-02-19T23:07:20.053Z,2.90
2023-02-19T23:09:49.119Z,2.90
2023-02-19T23:12:17.568Z,3.30
2023-02-19T23:14:47.100Z,3.00
2023-02-19T23:17:15.544Z,2.50
2023-02-19T23:19:44.134Z,2.80
2023-02-19T23:22:12.781Z,3.40
2023-02-19T23:24:41.226Z,3.70
2023-02-19T23:27:09.678Z,3.10
2023-02-19T23:29:38.198Z,3.10
2023-02-19T23:32:06.757Z,3.60
2023-02-19T23:34:35.423Z,2.90
2023-02-19T23:37:03.941Z,3.10
2023-02-19T23:39:32.855Z,3.30
2023-02-19T23:42:01.594Z,3.30
2023-02-19T23:44:30.176Z,3.50
2023-02-19T23:46:58.828Z,3.60
2023-02-19T23:49:27.411Z,3.30
2023-02-19T23:51:56.211Z,3.60
2023-02-19T23:54:24.908Z,3.50
2023-02-19T23:56:53.546Z,3.10
2023-02-19T23:59:22.121Z,4.20
